createdAt,value
2022-10-02T00:00:54.069Z,14.60
2022-10-02T00:05:08.122Z,14.50
2022-10-02T00:09:13.924Z,14.60
2022-10-02T00:13:30.554Z,14.50
2022-10-02T00:17:38.195Z,14.60
2022-10-02T00:22:12.170Z,14.60
2022-10-02T00:26:20.089Z,14.60
2022-10-02T00:30:21.571Z,14.60
2022-10-02T00:34:43.207Z,14.50
2022-10-02T00:39:03.316Z,14.50
2022-10-02T00:43:24.980Z,14.60
2022-10-02T00:47:42.207Z,14.80
2022-10-02T00:52:02.296Z,14.80
2022-10-02T00:56:29.590Z,14.90
2022-10-02T01:00:31.096Z,14.80
2022-10-02T01:04:38.276Z,14.90
2022-10-02T01:08:40.392Z,14.70
2022-10-02T01:12:41.710Z,14.70
2022-10-02T01:16:44.522Z,14.80
2022-10-02T01:20:51.998Z,14.80
2022-10-02T01:24:54.675Z,14.70
2022-10-02T01:28:55.958Z,14.80
2022-10-02T01:33:00.687Z,14.80
2022-10-02T01:37:02.712Z,14.80
2022-10-02T01:41:03.990Z,14.90
2022-10-02T01:45:07.679Z,14.90
2022-10-02T01:49:18.715Z,14.70
2022-10-02T01:53:38.708Z,14.80
2022-10-02T01:57:52.709Z,14.70
2022-10-02T02:02:06.806Z,14.70
2022-10-02T02:06:17.449Z,14.60
2022-10-02T02:10:49.611Z,14.80
2022-10-02T02:14:54.473Z,14.90
2022-10-02T02:19:20.626Z,14.90
2022-10-02T02:23:28.222Z,15.10
2022-10-02T02:27:33.219Z,14.80
2022-10-02T02:31:41.245Z,14.80
2022-10-02T02:35:46.276Z,14.80
2022-10-02T02:39:54.350Z,14.70
2022-10-02T02:43:59.241Z,14.70
2022-10-02T02:48:16.406Z,14.60
2022-10-02T02:52:23.854Z,14.70
2022-10-02T02:56:27.632Z,14.70
2022-10-02T03:00:29.159Z,14.70
2022-10-02T03:04:30.738Z,14.80
2022-10-02T03:08:35.827Z,14.70
2022-10-02T03:12:49.308Z,14.70
2022-10-02T03:16:54.395Z,14.80
2022-10-02T03:21:14.566Z,14.90
2022-10-02T03:25:22.445Z,14.80
2022-10-02T03:29:30.417Z,14.80
2022-10-02T03:33:33.538Z,14.80
2022-10-02T03:37:35.050Z,14.90
2022-10-02T03:41:36.145Z,14.80
2022-10-02T03:45:50.911Z,14.60
2022-10-02T03:49:40.366Z,14.70
2022-10-02T03:53:41.946Z,14.70
2022-10-02T03:57:44.725Z,14.80
2022-10-02T04:01:49.950Z,14.90
2022-10-02T04:05:57.896Z,14.80
2022-10-02T04:10:20.585Z,14.80
2022-10-02T04:14:31.307Z,14.70
2022-10-02T04:18:39.288Z,14.90
2022-10-02T04:22:53.297Z,14.90
2022-10-02T04:27:01.083Z,14.90
2022-10-02T04:31:11.948Z,14.70
2022-10-02T04:35:19.918Z,14.80
2022-10-02T04:39:30.784Z,14.80
2022-10-02T04:43:41.851Z,14.90
2022-10-02T04:51:15.095Z,15.00
2022-10-02T04:55:36.487Z,14.90
2022-10-02T04:59:53.688Z,14.90
2022-10-02T05:04:21.805Z,14.80
2022-10-02T05:08:45.203Z,14.80
2022-10-02T05:13:05.539Z,14.90
2022-10-02T05:17:12.946Z,14.90
2022-10-02T05:21:26.598Z,14.80
2022-10-02T05:25:50.031Z,14.90
2022-10-02T05:30:15.554Z,14.80
2022-10-02T05:34:26.583Z,14.70
2022-10-02T05:38:46.670Z,14.70
2022-10-02T05:43:09.787Z,14.80
2022-10-02T05:47:20.925Z,14.80
2022-10-02T05:51:42.681Z,14.70
2022-10-02T05:55:47.636Z,14.60
2022-10-02T06:00:01.528Z,14.70
2022-10-02T06:04:21.733Z,14.50
2022-10-02T06:08:35.622Z,14.50
2022-10-02T06:12:43.611Z,14.50
2022-10-02T06:16:54.358Z,14.70
2022-10-02T06:21:11.757Z,14.80
2022-10-02T06:25:22.885Z,14.80
2022-10-02T06:29:28.890Z,14.70
2022-10-02T06:33:32.758Z,14.60
2022-10-02T06:37:48.202Z,14.70
2022-10-02T06:41:55.983Z,14.60
2022-10-02T06:46:10.328Z,14.60
2022-10-02T06:50:27.819Z,14.60
2022-10-02T06:54:47.522Z,14.50
2022-10-02T06:58:55.462Z,14.60
2022-10-02T07:03:22.114Z,14.60
2022-10-02T07:07:39.148Z,14.80
2022-10-02T07:11:53.311Z,14.70
2022-10-02T07:16:13.236Z,14.70
2022-10-02T07:20:24.429Z,14.90
2022-10-02T07:24:44.452Z,14.80
2022-10-02T07:28:55.035Z,14.80
2022-10-02T07:33:18.831Z,14.80
2022-10-02T07:37:27.217Z,15.00
2022-10-02T07:41:41.495Z,14.80
2022-10-02T07:46:04.628Z,14.90
2022-10-02T07:50:30.988Z,15.00
2022-10-02T07:54:41.519Z,14.90
2022-10-02T07:59:01.409Z,14.80
2022-10-02T08:03:15.509Z,14.90
2022-10-02T08:07:16.755Z,14.90
2022-10-02T08:11:24.310Z,14.90
2022-10-02T08:15:29.286Z,14.90
2022-10-02T08:19:34.190Z,15.10
2022-10-02T08:23:42.042Z,15.20
2022-10-02T08:28:12.743Z,15.20
2022-10-02T08:32:14.282Z,15.40
2022-10-02T08:36:19.308Z,15.40
2022-10-02T08:40:28.762Z,15.30
2022-10-02T08:44:53.707Z,15.20
2022-10-02T08:48:58.602Z,15.10
2022-10-02T08:53:12.579Z,15.30
2022-10-02T08:57:40.713Z,15.40
2022-10-02T09:02:02.271Z,15.60
2022-10-02T09:06:19.697Z,15.60
2022-10-02T09:10:44.630Z,15.50
2022-10-02T09:14:55.562Z,15.50
2022-10-02T09:19:20.055Z,15.40
2022-10-02T09:23:40.358Z,15.60
2022-10-02T09:27:48.597Z,15.50
2022-10-02T09:32:21.080Z,15.60
2022-10-02T09:37:01.000Z,15.60
2022-10-02T09:41:32.741Z,15.70
2022-10-02T09:46:13.555Z,15.70
2022-10-02T09:50:36.496Z,15.80
2022-10-02T09:54:55.991Z,15.90
2022-10-02T09:59:33.211Z,15.80
2022-10-02T10:03:44.197Z,15.70
2022-10-02T10:08:07.546Z,15.60
2022-10-02T10:12:29.297Z,15.40
2022-10-02T10:17:04.973Z,15.30
2022-10-02T10:21:30.102Z,15.50
2022-10-02T10:25:49.597Z,15.40
2022-10-02T10:29:54.595Z,15.40
2022-10-02T10:34:11.907Z,15.40
2022-10-02T10:38:32.210Z,15.50
2022-10-02T10:43:07.461Z,15.60
2022-10-02T10:47:22.238Z,15.60
2022-10-02T10:51:30.013Z,16.00
2022-10-02T10:55:50.000Z,15.90
2022-10-02T11:00:04.143Z,15.70
2022-10-02T11:04:17.763Z,15.90
2022-10-02T11:08:25.569Z,15.70
2022-10-02T11:12:43.234Z,15.60
2022-10-02T11:17:10.925Z,15.70
2022-10-02T11:21:25.300Z,15.40
2022-10-02T11:25:56.117Z,15.70
2022-10-02T11:30:24.757Z,16.00
2022-10-02T11:34:54.128Z,16.10
2022-10-02T11:39:16.645Z,16.30
2022-10-02T11:43:28.145Z,16.10
2022-10-02T11:47:42.170Z,16.10
2022-10-02T11:51:55.876Z,16.10
2022-10-02T11:56:11.085Z,16.10
2022-10-02T12:00:33.221Z,16.00
2022-10-02T12:04:41.359Z,16.00
2022-10-02T12:08:52.361Z,16.00
2022-10-02T12:13:16.566Z,16.20
2022-10-02T12:17:49.276Z,16.00
2022-10-02T12:22:12.591Z,16.10
2022-10-02T12:26:42.263Z,16.30
2022-10-02T12:31:13.604Z,16.40
2022-10-02T12:35:25.558Z,16.40
2022-10-02T12:39:58.119Z,16.30
2022-10-02T12:44:26.079Z,16.30
2022-10-02T12:48:37.827Z,16.20
2022-10-02T12:53:16.547Z,16.30
2022-10-02T12:57:40.299Z,16.50
2022-10-02T13:02:05.740Z,16.40
2022-10-02T13:06:33.383Z,16.60
2022-10-02T13:10:53.866Z,16.50
2022-10-02T13:15:17.129Z,16.70
2022-10-02T13:19:24.595Z,16.70
2022-10-02T13:23:38.723Z,16.90
2022-10-02T13:27:47.040Z,16.80
2022-10-02T13:31:54.623Z,16.90
2022-10-02T13:36:05.915Z,16.50
2022-10-02T13:40:40.305Z,16.60
2022-10-02T13:45:03.385Z,16.70
2022-10-02T13:49:08.383Z,16.70
2022-10-02T13:53:13.366Z,16.70
2022-10-02T13:57:21.354Z,16.70
2022-10-02T14:01:35.979Z,16.90
2022-10-02T14:05:47.463Z,16.90
2022-10-02T14:10:25.650Z,16.90
2022-10-02T14:14:35.149Z,16.70
2022-10-02T14:19:12.577Z,16.50
2022-10-02T14:23:32.981Z,16.50
2022-10-02T14:28:01.288Z,16.60
2022-10-02T14:32:10.488Z,16.40
2022-10-02T14:36:24.563Z,16.40
2022-10-02T14:40:38.686Z,16.60
2022-10-02T14:45:20.981Z,16.50
2022-10-02T14:49:41.092Z,16.70
2022-10-02T14:53:55.121Z,16.80
2022-10-02T14:58:09.991Z,16.80
2022-10-02T15:02:23.554Z,16.70
2022-10-02T15:06:49.514Z,16.80
2022-10-02T15:10:51.495Z,16.80
2022-10-02T15:15:05.941Z,16.60
2022-10-02T15:19:22.932Z,16.60
2022-10-02T15:23:40.699Z,16.60
2022-10-02T15:28:35.149Z,16.70
2022-10-02T15:32:47.676Z,16.60
2022-10-02T15:37:21.259Z,16.50
2022-10-02T15:41:35.380Z,16.60
2022-10-02T15:45:40.521Z,16.60
2022-10-02T15:49:51.482Z,16.50
2022-10-02T15:54:11.791Z,16.50
2022-10-02T15:58:50.550Z,16.50
2022-10-02T16:03:04.693Z,16.50
2022-10-02T16:07:12.703Z,16.50
2022-10-02T16:11:23.662Z,16.40
2022-10-02T16:15:48.240Z,16.30
2022-10-02T16:20:11.770Z,16.20
2022-10-02T16:24:38.385Z,16.30
2022-10-02T16:29:01.889Z,16.10
2022-10-02T16:33:22.304Z,16.10
2022-10-02T16:37:28.586Z,16.00
2022-10-02T16:41:39.511Z,16.00
2022-10-02T16:45:59.194Z,15.80
2022-10-02T16:50:22.425Z,15.80
2022-10-02T16:54:44.140Z,15.70
2022-10-02T16:58:52.149Z,15.70
2022-10-02T17:03:13.846Z,15.80
2022-10-02T17:07:29.263Z,15.80
2022-10-02T17:11:34.401Z,15.70
2022-10-02T17:15:46.416Z,15.60
2022-10-02T17:20:03.570Z,15.70
2022-10-02T17:24:35.763Z,15.70
2022-10-02T17:28:46.752Z,15.70
2022-10-02T17:33:08.715Z,15.60
2022-10-02T17:37:20.395Z,15.60
2022-10-02T17:41:37.773Z,15.60
2022-10-02T17:45:45.804Z,15.50
2022-10-02T17:50:24.424Z,15.50
2022-10-02T17:54:51.033Z,15.50
2022-10-02T17:59:08.296Z,15.50
2022-10-02T18:03:19.083Z,15.50
2022-10-02T18:07:55.850Z,15.50
2022-10-02T18:12:20.883Z,15.40
2022-10-02T18:16:38.283Z,15.40
2022-10-02T18:21:02.839Z,15.30
2022-10-02T18:25:29.572Z,15.30
2022-10-02T18:29:49.438Z,15.30
2022-10-02T18:34:17.069Z,15.10
2022-10-02T18:38:51.400Z,15.20
2022-10-02T18:43:18.702Z,15.20
2022-10-02T18:47:26.202Z,15.10
2022-10-02T18:51:49.580Z,15.00
2022-10-02T18:56:03.711Z,15.00
2022-10-02T19:00:22.237Z,14.90
2022-10-02T19:04:39.693Z,14.90
2022-10-02T19:08:56.916Z,14.80
2022-10-02T19:13:16.713Z,15.00
2022-10-02T19:17:25.363Z,15.10
2022-10-02T19:21:26.635Z,15.10
2022-10-02T19:25:28.225Z,15.10
2022-10-02T19:29:48.987Z,15.10
2022-10-02T19:33:53.976Z,14.80
2022-10-02T19:38:01.719Z,15.00
2022-10-02T19:42:12.464Z,14.90
2022-10-02T19:46:15.984Z,14.80
2022-10-02T19:50:23.773Z,14.80
2022-10-02T19:54:31.821Z,14.70
2022-10-02T19:58:45.387Z,14.70
2022-10-02T20:02:49.690Z,14.70
2022-10-02T20:06:56.588Z,14.70
2022-10-02T20:11:07.124Z,14.70
2022-10-02T20:15:20.236Z,14.70
2022-10-02T20:19:25.036Z,14.70
2022-10-02T20:23:29.026Z,14.70
2022-10-02T20:27:50.882Z,14.70
2022-10-02T20:31:58.773Z,14.70
2022-10-02T20:36:06.907Z,14.80
2022-10-02T20:40:15.235Z,14.90
2022-10-02T20:44:17.708Z,15.00
2022-10-02T20:49:06.326Z,15.00
2022-10-02T20:52:59.143Z,15.10
2022-10-02T20:57:29.776Z,15.10
2022-10-02T21:01:40.853Z,15.10
2022-10-02T21:06:06.548Z,15.00
2022-10-02T21:10:40.335Z,15.00
2022-10-02T21:15:14.457Z,14.90
2022-10-02T21:19:51.602Z,14.80
2022-10-02T21:24:15.359Z,14.70
2022-10-02T21:28:23.550Z,14.80
2022-10-02T21:32:58.732Z,14.70
2022-10-02T21:37:29.551Z,14.60
2022-10-02T21:41:44.930Z,14.50
2022-10-02T21:46:20.646Z,14.50
2022-10-02T21:50:31.337Z,14.30
2022-10-02T21:54:42.547Z,14.20
2022-10-02T21:59:05.898Z,14.40
2022-10-02T22:03:44.747Z,14.30
2022-10-02T22:07:52.431Z,14.30
2022-10-02T22:12:00.461Z,14.30
2022-10-02T22:16:14.357Z,14.20
2022-10-02T22:20:25.376Z,14.20
2022-10-02T22:24:39.647Z,14.20
2022-10-02T22:28:50.852Z,14.10
2022-10-02T22:33:11.310Z,13.90
2022-10-02T22:37:16.372Z,14.00
2022-10-02T22:41:33.545Z,13.90
2022-10-02T22:45:40.980Z,14.00
2022-10-02T22:49:46.171Z,13.90
2022-10-02T22:53:51.163Z,13.90
2022-10-02T22:58:01.874Z,13.80
2022-10-02T23:02:16.123Z,13.80
2022-10-02T23:06:32.713Z,13.80
2022-10-02T23:10:43.841Z,13.70
2022-10-02T23:15:06.853Z,13.70
2022-10-02T23:19:26.591Z,13.70
2022-10-02T23:23:31.573Z,13.70
2022-10-02T23:28:09.846Z,13.60
2022-10-02T23:32:30.921Z,13.60
2022-10-02T23:36:38.999Z,13.50
2022-10-02T23:41:28.751Z,13.50
2022-10-02T23:45:36.734Z,13.50
2022-10-02T23:49:43.932Z,13.40
2022-10-02T23:54:01.185Z,13.40
2022-10-02T23:58:24.007Z,13.50
